createdAt,value
2022-08-05T00:00:49.052Z,1009.21
2022-08-05T00:01:48.845Z,1009.27
2022-08-05T00:02:51.080Z,1009.26
2022-08-05T00:03:48.029Z,1009.26
2022-08-05T00:04:47.995Z,1009.28
2022-08-05T00:06:05.553Z,1009.33
2022-08-05T00:06:51.641Z,1009.33
2022-08-05T00:08:00.765Z,1009.26
2022-08-05T00:08:48.961Z,1009.24
2022-08-05T00:09:47.941Z,1009.27
2022-08-05T00:10:47.902Z,1009.20
2022-08-05T00:11:49.352Z,1009.24
2022-08-05T00:12:56.860Z,1009.25
2022-08-05T00:13:52.958Z,1009.27
2022-08-05T00:14:47.847Z,1009.35
2022-08-05T00:15:58.137Z,1009.33
2022-08-05T00:16:52.896Z,1009.45
2022-08-05T00:17:48.823Z,1009.42
2022-08-05T00:18:48.207Z,1009.42
2022-08-05T00:20:02.428Z,1009.46
2022-08-05T00:20:48.952Z,1009.46
2022-08-05T00:21:47.786Z,1009.48
2022-08-05T00:22:59.600Z,1009.52
2022-08-05T00:23:53.373Z,1009.50
2022-08-05T00:24:48.724Z,1009.50
2022-08-05T00:25:48.707Z,1009.50
2022-08-05T00:26:50.756Z,1009.45
2022-08-05T00:27:47.676Z,1009.41
2022-08-05T00:28:47.686Z,1009.48
2022-08-05T00:29:47.671Z,1009.43
2022-08-05T00:30:47.656Z,1009.39
2022-08-05T00:31:54.379Z,1009.41
2022-08-05T00:32:48.636Z,1009.40
2022-08-05T00:34:55.424Z,1009.37
2022-08-05T00:35:04.623Z,1009.35
2022-08-05T00:36:16.237Z,1009.38
2022-08-05T00:37:10.420Z,1009.31
2022-08-05T00:37:52.725Z,1009.36
2022-08-05T00:38:48.570Z,1009.30
2022-08-05T00:39:57.406Z,1009.31
2022-08-05T00:40:51.921Z,1009.28
2022-08-05T00:41:55.077Z,1009.28
2022-08-05T00:42:49.990Z,1009.23
2022-08-05T00:43:50.052Z,1009.24
2022-08-05T00:44:47.469Z,1009.19
2022-08-05T00:45:47.469Z,1009.16
2022-08-05T00:46:47.436Z,1009.23
2022-08-05T00:47:56.763Z,1009.29
2022-08-05T00:48:50.886Z,1009.36
2022-08-05T00:49:51.699Z,1009.40
2022-08-05T00:50:47.402Z,1009.41
2022-08-05T00:51:51.695Z,1009.39
2022-08-05T00:52:47.377Z,1009.35
2022-08-05T00:54:02.248Z,1009.35
2022-08-05T00:54:48.359Z,1009.35
2022-08-05T00:55:47.340Z,1009.34
2022-08-05T00:56:51.831Z,1009.39
2022-08-05T00:57:58.751Z,1009.31
2022-08-05T00:58:48.321Z,1009.34
2022-08-05T00:59:47.288Z,1009.38
2022-08-05T01:00:47.335Z,1009.37
2022-08-05T01:01:48.549Z,1009.40
2022-08-05T01:02:47.242Z,1009.40
2022-08-05T01:03:49.955Z,1009.40
2022-08-05T01:04:50.400Z,1009.40
2022-08-05T01:05:47.212Z,1009.53
2022-08-05T01:06:48.743Z,1009.54
2022-08-05T01:08:30.789Z,1009.51
2022-08-05T01:08:48.189Z,1009.59
2022-08-05T01:09:47.156Z,1009.56
2022-08-05T01:10:52.503Z,1009.59
2022-08-05T01:11:47.139Z,1009.62
2022-08-05T01:13:03.246Z,1009.66
2022-08-05T01:13:58.809Z,1009.65
2022-08-05T01:14:48.086Z,1009.63
2022-08-05T01:15:47.834Z,1009.60
2022-08-05T01:16:47.053Z,1009.62
2022-08-05T01:17:47.039Z,1009.63
2022-08-05T01:18:53.749Z,1009.57
2022-08-05T01:20:01.880Z,1009.61
2022-08-05T01:20:48.011Z,1009.58
2022-08-05T01:21:50.638Z,1009.59
2022-08-05T01:22:47.276Z,1009.60
2022-08-05T01:23:47.195Z,1009.58
2022-08-05T01:24:47.955Z,1009.54
2022-08-05T01:25:50.275Z,1009.56
2022-08-05T01:26:48.010Z,1009.58
2022-08-05T01:27:55.539Z,1009.59
2022-08-05T01:28:47.896Z,1009.56
2022-08-05T01:29:46.914Z,1009.66
2022-08-05T01:30:53.905Z,1009.59
2022-08-05T01:31:47.874Z,1009.63
2022-08-05T01:32:46.861Z,1009.64
2022-08-05T01:33:49.008Z,1009.66
2022-08-05T01:34:46.842Z,1009.67
2022-08-05T01:35:50.988Z,1009.69
2022-08-05T01:36:47.807Z,1009.67
2022-08-05T01:37:46.799Z,1009.68
2022-08-05T01:38:48.422Z,1009.75
2022-08-05T01:39:47.977Z,1009.74
2022-08-05T01:40:46.746Z,1009.79
2022-08-05T01:41:46.743Z,1009.84
2022-08-05T01:42:46.730Z,1009.86
2022-08-05T01:43:46.721Z,1009.94
2022-08-05T01:44:54.374Z,1009.98
2022-08-05T01:45:47.681Z,1009.98
2022-08-05T01:46:47.664Z,1010.05
2022-08-05T01:47:46.668Z,1009.97
2022-08-05T01:48:49.742Z,1010.00
2022-08-05T01:50:01.463Z,1010.00
2022-08-05T01:50:51.149Z,1010.02
2022-08-05T01:51:51.789Z,1010.04
2022-08-05T01:52:49.628Z,1010.05
2022-08-05T01:53:57.230Z,1010.05
2022-08-05T01:54:47.595Z,1010.04
2022-08-05T01:55:46.571Z,1010.05
2022-08-05T01:58:10.807Z,1010.07
2022-08-05T01:58:11.542Z,1010.07
2022-08-05T01:58:47.870Z,1010.09
2022-08-05T01:59:47.301Z,1010.07
2022-08-05T02:00:46.498Z,1010.19
2022-08-05T02:01:46.497Z,1010.17
2022-08-05T02:02:53.636Z,1010.20
2022-08-05T02:03:47.466Z,1010.23
2022-08-05T02:04:49.588Z,1010.27
2022-08-05T02:05:46.450Z,1010.24
2022-08-05T02:06:46.414Z,1010.24
2022-08-05T02:07:47.304Z,1010.25
2022-08-05T02:08:57.883Z,1010.20
2022-08-05T02:09:47.417Z,1010.27
2022-08-05T02:10:46.365Z,1010.33
2022-08-05T02:11:49.436Z,1010.35
2022-08-05T02:12:47.353Z,1010.29
2022-08-05T02:13:53.075Z,1010.38
2022-08-05T02:14:47.910Z,1010.35
2022-08-05T02:15:46.318Z,1010.40
2022-08-05T02:16:46.316Z,1010.46
2022-08-05T02:18:33.085Z,1010.48
2022-08-05T02:18:47.278Z,1010.48
2022-08-05T02:19:47.679Z,1010.41
2022-08-05T02:20:46.957Z,1010.48
2022-08-05T02:21:46.890Z,1010.44
2022-08-05T02:22:46.219Z,1010.55
2022-08-05T02:23:46.212Z,1010.58
2022-08-05T02:24:46.189Z,1010.66
2022-08-05T02:25:49.770Z,1010.68
2022-08-05T02:26:51.895Z,1010.73
2022-08-05T02:27:58.950Z,1010.73
2022-08-05T02:28:47.133Z,1010.82
2022-08-05T02:29:59.810Z,1010.75
2022-08-05T02:30:54.202Z,1010.85
2022-08-05T02:31:47.117Z,1010.86
2022-08-05T02:32:46.086Z,1010.92
2022-08-05T02:33:46.087Z,1010.88
2022-08-05T02:34:46.081Z,1010.87
2022-08-05T02:35:51.045Z,1010.91
2022-08-05T02:36:47.042Z,1010.91
2022-08-05T02:37:47.727Z,1010.96
2022-08-05T02:38:53.613Z,1010.95
2022-08-05T02:39:47.768Z,1011.03
2022-08-05T02:40:45.978Z,1011.06
2022-08-05T02:41:58.262Z,1011.11
2022-08-05T02:42:52.721Z,1011.23
2022-08-05T02:44:02.615Z,1011.23
2022-08-05T02:44:46.934Z,1011.30
2022-08-05T02:45:51.926Z,1011.40
2022-08-05T02:46:58.399Z,1011.41
2022-08-05T02:48:06.942Z,1011.56
2022-08-05T02:48:46.889Z,1011.65
2022-08-05T02:49:45.875Z,1011.71
2022-08-05T02:50:45.880Z,1011.79
2022-08-05T02:52:01.172Z,1011.79
2022-08-05T02:52:46.827Z,1011.78
2022-08-05T02:53:45.811Z,1011.74
2022-08-05T02:54:51.133Z,1011.67
2022-08-05T02:55:52.123Z,1011.61
2022-08-05T02:56:46.804Z,1011.37
2022-08-05T02:58:10.044Z,1011.22
2022-08-05T02:58:51.229Z,1011.03
2022-08-05T02:59:50.122Z,1010.70
2022-08-05T03:00:45.965Z,1010.48
2022-08-05T03:01:45.757Z,1010.09
2022-08-05T03:02:45.691Z,1009.81
2022-08-05T03:04:04.348Z,1009.32
2022-08-05T03:04:46.696Z,1008.99
2022-08-05T03:06:54.597Z,1008.83
2022-08-05T03:06:55.503Z,1008.78
2022-08-05T03:08:06.733Z,1008.74
2022-08-05T03:08:46.613Z,1008.88
2022-08-05T03:09:49.196Z,1009.02
2022-08-05T03:11:02.383Z,1009.15
2022-08-05T03:11:55.115Z,1009.27
2022-08-05T03:12:46.581Z,1009.39
2022-08-05T03:13:51.896Z,1009.53
2022-08-05T03:14:46.546Z,1009.68
2022-08-05T03:15:45.521Z,1009.82
2022-08-05T03:16:45.582Z,1009.97
2022-08-05T03:17:45.514Z,1010.09
2022-08-05T03:18:45.496Z,1010.22
2022-08-05T03:19:45.913Z,1010.39
2022-08-05T03:20:48.891Z,1010.48
2022-08-05T03:21:49.521Z,1010.65
2022-08-05T03:22:46.869Z,1010.67
2022-08-05T03:23:45.630Z,1010.72
2022-08-05T03:24:47.090Z,1010.73
2022-08-05T03:26:04.308Z,1010.75
2022-08-05T03:26:49.447Z,1010.77
2022-08-05T03:27:59.320Z,1010.78
2022-08-05T03:28:46.363Z,1010.81
2022-08-05T03:30:07.416Z,1010.81
2022-08-05T03:30:46.332Z,1010.86
2022-08-05T03:31:55.652Z,1010.82
2022-08-05T03:32:46.326Z,1010.80
2022-08-05T03:33:52.656Z,1010.79
2022-08-05T03:34:50.568Z,1010.80
2022-08-05T03:35:46.266Z,1010.73
2022-08-05T03:36:45.264Z,1010.66
2022-08-05T03:37:46.291Z,1010.56
2022-08-05T03:38:53.171Z,1010.58
2022-08-05T03:39:57.790Z,1010.55
2022-08-05T03:40:48.462Z,1010.59
2022-08-05T03:41:46.968Z,1010.63
2022-08-05T03:42:52.136Z,1010.65
2022-08-05T03:44:09.571Z,1010.64
2022-08-05T03:44:46.135Z,1010.58
2022-08-05T03:45:58.339Z,1010.56
2022-08-05T03:46:46.112Z,1010.65
2022-08-05T03:47:45.133Z,1010.67
2022-08-05T03:48:45.250Z,1010.73
2022-08-05T03:49:51.980Z,1010.71
2022-08-05T03:50:46.059Z,1010.73
2022-08-05T03:52:39.424Z,1010.72
2022-08-05T03:55:00.446Z,1010.62
2022-08-05T03:55:34.007Z,1010.73
2022-08-05T03:55:34.419Z,1010.74
2022-08-05T03:56:06.286Z,1010.64
2022-08-05T03:56:46.282Z,1010.59
2022-08-05T03:57:45.620Z,1010.55
2022-08-05T03:58:44.973Z,1010.55
2022-08-05T03:59:47.354Z,1010.48
2022-08-05T04:00:51.299Z,1010.47
2022-08-05T04:01:45.963Z,1010.47
2022-08-05T04:02:51.874Z,1010.42
2022-08-05T04:04:09.228Z,1010.41
2022-08-05T04:04:45.897Z,1010.47
2022-08-05T04:05:44.875Z,1010.38
2022-08-05T04:06:47.787Z,1010.41
2022-08-05T04:07:57.454Z,1010.38
2022-08-05T04:08:45.833Z,1010.35
2022-08-05T04:09:53.192Z,1010.29
2022-08-05T04:10:45.798Z,1010.25
2022-08-05T04:11:50.377Z,1010.23
2022-08-05T04:13:15.737Z,1010.17
2022-08-05T04:14:18.064Z,1010.21
2022-08-05T04:15:15.783Z,1010.19
2022-08-05T04:16:15.686Z,1010.17
2022-08-05T04:17:16.680Z,1010.19
2022-08-05T04:18:22.423Z,1010.14
2022-08-05T04:19:16.665Z,1010.10
2022-08-05T04:20:15.639Z,1010.10
2022-08-05T04:22:05.272Z,1010.09
2022-08-05T04:22:20.511Z,1009.99
2022-08-05T04:23:16.134Z,1009.95
2022-08-05T04:24:19.355Z,1009.92
2022-08-05T04:25:16.578Z,1009.77
2022-08-05T04:26:15.568Z,1009.71
2022-08-05T04:27:15.569Z,1009.70
2022-08-05T04:28:15.615Z,1009.55
2022-08-05T04:29:15.526Z,1009.52
2022-08-05T04:30:15.509Z,1009.53
2022-08-05T04:31:15.485Z,1009.65
2022-08-05T04:32:15.654Z,1009.71
2022-08-05T04:33:16.490Z,1009.77
2022-08-05T04:34:29.569Z,1009.80
2022-08-05T04:35:19.552Z,1009.90
2022-08-05T04:36:38.510Z,1010.04
2022-08-05T04:37:16.479Z,1010.11
2022-08-05T04:38:15.590Z,1010.16
2022-08-05T04:39:15.452Z,1010.12
2022-08-05T04:40:19.368Z,1010.00
2022-08-05T04:41:15.361Z,1009.91
2022-08-05T04:42:15.348Z,1009.89
2022-08-05T04:43:16.487Z,1009.96
2022-08-05T04:44:20.973Z,1010.13
2022-08-05T04:45:23.098Z,1010.22
2022-08-05T04:46:28.143Z,1010.23
2022-08-05T04:47:20.090Z,1010.32
2022-08-05T04:48:18.670Z,1010.26
2022-08-05T04:49:16.252Z,1010.32
2022-08-05T04:50:15.244Z,1010.34
2022-08-05T04:51:16.222Z,1010.42
2022-08-05T04:52:15.236Z,1010.48
2022-08-05T04:53:15.212Z,1010.51
2022-08-05T04:54:15.187Z,1010.53
2022-08-05T04:55:15.461Z,1010.60
2022-08-05T04:56:34.733Z,1010.60
2022-08-05T04:57:16.199Z,1010.69
2022-08-05T04:58:15.132Z,1010.66
2022-08-05T04:59:24.131Z,1010.63
2022-08-05T05:00:16.102Z,1010.66
2022-08-05T05:01:15.228Z,1010.60
2022-08-05T05:02:36.571Z,1010.54
2022-08-05T05:03:16.910Z,1010.58
2022-08-05T05:04:15.063Z,1010.53
2022-08-05T05:05:26.074Z,1010.52
2022-08-05T05:06:38.766Z,1010.57
2022-08-05T05:07:16.094Z,1010.46
2022-08-05T05:08:26.682Z,1010.52
2022-08-05T05:09:17.716Z,1010.50
2022-08-05T05:10:15.003Z,1010.41
2022-08-05T05:11:15.193Z,1010.43
2022-08-05T05:12:15.076Z,1010.37
2022-08-05T05:13:14.944Z,1010.33
2022-08-05T05:14:16.100Z,1010.38
2022-08-05T05:15:17.508Z,1010.41
2022-08-05T05:16:15.924Z,1010.48
2022-08-05T05:17:14.863Z,1010.50
2022-08-05T05:18:14.877Z,1010.53
2022-08-05T05:19:19.345Z,1010.49
2022-08-05T05:20:15.846Z,1010.42
2022-08-05T05:21:14.834Z,1010.37
2022-08-05T05:22:23.965Z,1010.39
2022-08-05T05:23:19.927Z,1010.39
2022-08-05T05:24:14.823Z,1010.36
2022-08-05T05:25:16.504Z,1010.40
2022-08-05T05:26:14.774Z,1010.36
2022-08-05T05:27:14.743Z,1010.36
2022-08-05T05:28:14.753Z,1010.34
2022-08-05T05:29:15.088Z,1010.33
2022-08-05T05:30:15.745Z,1010.32
2022-08-05T05:31:15.795Z,1010.35
2022-08-05T05:32:15.612Z,1010.43
2022-08-05T05:33:17.074Z,1010.38
2022-08-05T05:34:15.546Z,1010.48
2022-08-05T05:35:20.005Z,1010.54
2022-08-05T05:36:15.644Z,1010.50
2022-08-05T05:37:14.649Z,1010.51
2022-08-05T05:38:14.611Z,1010.53
2022-08-05T05:39:14.673Z,1010.55
2022-08-05T05:40:14.595Z,1010.52
2022-08-05T05:41:16.438Z,1010.49
2022-08-05T05:42:14.584Z,1010.49
2022-08-05T05:43:14.533Z,1010.47
2022-08-05T05:44:15.722Z,1010.39
2022-08-05T05:45:15.502Z,1010.41
2022-08-05T05:46:17.442Z,1010.41
2022-08-05T05:47:21.653Z,1010.45
2022-08-05T05:48:16.094Z,1010.45
2022-08-05T05:49:22.913Z,1010.49
2022-08-05T05:50:16.297Z,1010.45
2022-08-05T05:51:15.511Z,1010.49
2022-08-05T05:52:28.740Z,1010.53
2022-08-05T05:53:22.541Z,1010.58
2022-08-05T05:54:15.426Z,1010.64
2022-08-05T05:55:14.412Z,1010.66
2022-08-05T05:56:14.379Z,1010.71
2022-08-05T05:57:24.276Z,1010.70
2022-08-05T05:58:15.338Z,1010.73
2022-08-05T05:59:16.064Z,1010.63
2022-08-05T06:00:14.349Z,1010.66
2022-08-05T06:01:15.358Z,1010.62
2022-08-05T06:02:14.283Z,1010.62
2022-08-05T06:03:40.854Z,1010.61
2022-08-05T06:04:15.348Z,1010.60
2022-08-05T06:05:16.678Z,1010.65
2022-08-05T06:06:14.244Z,1010.66
2022-08-05T06:07:14.240Z,1010.60
2022-08-05T06:08:14.210Z,1010.62
2022-08-05T06:09:17.710Z,1010.61
2022-08-05T06:10:15.228Z,1010.65
2022-08-05T06:11:14.162Z,1010.68
2022-08-05T06:12:14.151Z,1010.67
2022-08-05T06:13:14.157Z,1010.68
2022-08-05T06:14:14.141Z,1010.67
2022-08-05T06:15:24.154Z,1010.70
2022-08-05T06:16:30.493Z,1010.71
2022-08-05T06:17:22.446Z,1010.76
2022-08-05T06:18:15.074Z,1010.74
2022-08-05T06:19:14.079Z,1010.82
2022-08-05T06:20:21.467Z,1010.80
2022-08-05T06:21:16.797Z,1010.80
2022-08-05T06:22:14.045Z,1010.82
2022-08-05T06:23:14.019Z,1010.79
2022-08-05T06:24:14.756Z,1010.80
2022-08-05T06:25:59.252Z,1010.81
2022-08-05T06:26:20.929Z,1010.87
2022-08-05T06:28:09.375Z,1010.88
2022-08-05T06:28:21.285Z,1010.90
2022-08-05T06:29:24.946Z,1010.98
2022-08-05T06:30:17.913Z,1011.04
2022-08-05T06:31:17.921Z,1011.08
2022-08-05T06:32:25.190Z,1011.12
2022-08-05T06:33:18.980Z,1011.06
2022-08-05T06:34:13.882Z,1011.07
2022-08-05T06:35:15.531Z,1011.09
2022-08-05T06:36:14.840Z,1011.08
2022-08-05T06:37:13.841Z,1011.08
2022-08-05T06:38:13.813Z,1011.07
2022-08-05T06:39:13.845Z,1011.04
2022-08-05T06:40:13.948Z,1011.11
2022-08-05T06:41:13.766Z,1011.03
2022-08-05T06:42:13.776Z,1011.03
2022-08-05T06:43:51.693Z,1010.99
2022-08-05T06:44:14.747Z,1011.04
2022-08-05T06:45:21.195Z,1011.03
2022-08-05T06:46:14.724Z,1011.03
2022-08-05T06:47:29.994Z,1011.00
2022-08-05T06:48:50.507Z,1010.98
2022-08-05T06:49:14.690Z,1010.99
2022-08-05T06:50:17.341Z,1011.03
2022-08-05T06:51:26.683Z,1011.03
2022-08-05T06:52:37.926Z,1011.09
2022-08-05T06:53:22.568Z,1011.05
2022-08-05T06:54:18.249Z,1011.02
2022-08-05T06:55:13.613Z,1011.04
2022-08-05T06:56:26.638Z,1011.12
2022-08-05T06:58:03.751Z,1011.06
2022-08-05T06:58:29.152Z,1011.11
2022-08-05T06:59:14.553Z,1011.12
2022-08-05T07:00:13.540Z,1011.12
2022-08-05T07:01:14.579Z,1011.14
2022-08-05T07:02:14.551Z,1011.08
2022-08-05T07:03:13.486Z,1011.16
2022-08-05T07:04:13.952Z,1011.16
2022-08-05T07:05:18.596Z,1011.16
2022-08-05T07:06:15.299Z,1011.11
2022-08-05T07:07:13.452Z,1011.08
2022-08-05T07:08:13.453Z,1011.11
2022-08-05T07:09:13.913Z,1011.19
2022-08-05T07:10:14.866Z,1011.20
2022-08-05T07:11:15.466Z,1011.18
2022-08-05T07:12:13.402Z,1011.19
2022-08-05T07:13:13.462Z,1011.21
2022-08-05T07:14:20.276Z,1011.22
2022-08-05T07:15:14.329Z,1011.30
2022-08-05T07:16:39.445Z,1011.24
2022-08-05T07:17:58.905Z,1011.32
2022-08-05T07:18:27.232Z,1011.32
2022-08-05T07:19:15.464Z,1011.33
2022-08-05T07:21:14.270Z,1011.33
2022-08-05T07:22:14.260Z,1011.45
2022-08-05T07:23:26.382Z,1011.34
2022-08-05T07:24:14.231Z,1011.40
2022-08-05T07:25:23.487Z,1011.48
2022-08-05T07:26:15.039Z,1011.48
2022-08-05T07:27:14.168Z,1011.52
2022-08-05T07:28:17.387Z,1011.51
2022-08-05T07:29:13.167Z,1011.43
2022-08-05T07:30:27.919Z,1011.52
2022-08-05T07:31:14.241Z,1011.52
2022-08-05T07:32:13.108Z,1011.58
2022-08-05T07:33:15.961Z,1011.61
2022-08-05T07:34:13.998Z,1011.65
2022-08-05T07:36:03.727Z,1011.68
2022-08-05T07:36:20.916Z,1011.64
2022-08-05T07:37:14.046Z,1011.64
2022-08-05T07:38:32.924Z,1011.62
2022-08-05T07:40:02.336Z,1011.68
2022-08-05T07:40:31.404Z,1011.70
2022-08-05T07:42:08.363Z,1011.66
2022-08-05T07:42:16.265Z,1011.73
2022-08-05T07:43:20.229Z,1011.73
2022-08-05T07:44:18.398Z,1011.72
2022-08-05T07:45:12.938Z,1011.73
2022-08-05T07:46:24.647Z,1011.76
2022-08-05T07:47:14.812Z,1011.71
2022-08-05T07:48:12.899Z,1011.78
2022-08-05T07:49:12.898Z,1011.76
2022-08-05T07:50:12.877Z,1011.83
2022-08-05T07:51:22.949Z,1011.82
2022-08-05T07:52:13.871Z,1011.84
2022-08-05T07:53:13.327Z,1011.91
2022-08-05T07:54:12.835Z,1011.88
2022-08-05T07:55:15.892Z,1011.93
2022-08-05T07:57:00.125Z,1011.98
2022-08-05T07:57:22.740Z,1011.96
2022-08-05T07:58:54.493Z,1012.01
2022-08-05T07:59:13.769Z,1012.02
2022-08-05T08:00:12.747Z,1012.06
2022-08-05T08:01:12.820Z,1012.06
2022-08-05T08:02:16.934Z,1012.05
2022-08-05T08:03:15.850Z,1012.03
2022-08-05T08:04:12.754Z,1012.10
2022-08-05T08:05:12.698Z,1012.11
2022-08-05T08:06:12.699Z,1012.13
2022-08-05T08:07:12.680Z,1012.18
2022-08-05T08:08:12.646Z,1012.16
2022-08-05T08:09:12.658Z,1012.21
2022-08-05T08:10:12.627Z,1012.22
2022-08-05T08:11:13.770Z,1012.21
2022-08-05T08:12:48.630Z,1012.22
2022-08-05T08:13:13.589Z,1012.22
2022-08-05T08:14:18.203Z,1012.25
2022-08-05T08:15:15.636Z,1012.23
2022-08-05T08:16:49.719Z,1012.25
2022-08-05T08:17:15.981Z,1012.29
2022-08-05T08:18:14.414Z,1012.31
2022-08-05T08:19:37.947Z,1012.30
2022-08-05T08:20:44.402Z,1012.36
2022-08-05T08:21:15.789Z,1012.36
2022-08-05T08:22:15.996Z,1012.38
2022-08-05T08:24:02.938Z,1012.41
2022-08-05T08:24:14.114Z,1012.37
2022-08-05T08:25:16.238Z,1012.44
2022-08-05T08:26:12.428Z,1012.44
2022-08-05T08:27:20.709Z,1012.44
2022-08-05T08:28:18.650Z,1012.41
2022-08-05T08:29:45.339Z,1012.49
2022-08-05T08:30:19.015Z,1012.52
2022-08-05T08:31:15.076Z,1012.54
2022-08-05T08:32:12.371Z,1012.51
2022-08-05T08:33:13.732Z,1012.59
2022-08-05T08:34:12.371Z,1012.56
2022-08-05T08:35:13.370Z,1012.58
2022-08-05T08:36:40.184Z,1012.52
2022-08-05T08:37:13.309Z,1012.56
2022-08-05T08:38:16.455Z,1012.59
2022-08-05T08:39:15.862Z,1012.61
2022-08-05T08:40:12.281Z,1012.62
2022-08-05T08:41:13.958Z,1012.58
2022-08-05T08:42:32.488Z,1012.63
2022-08-05T08:45:16.227Z,1012.57
2022-08-05T08:45:16.543Z,1012.55
2022-08-05T08:45:22.306Z,1012.60
2022-08-05T08:46:15.598Z,1012.61
2022-08-05T08:47:21.623Z,1012.65
2022-08-05T08:48:42.996Z,1012.69
2022-08-05T08:50:05.703Z,1012.69
2022-08-05T08:50:32.784Z,1012.67
2022-08-05T08:52:02.377Z,1012.73
2022-08-05T08:52:13.943Z,1012.72
2022-08-05T08:53:12.586Z,1012.75
2022-08-05T08:54:13.751Z,1012.77
2022-08-05T08:55:13.323Z,1012.81
2022-08-05T08:56:12.035Z,1012.81
2022-08-05T08:57:13.342Z,1012.90
2022-08-05T08:58:13.111Z,1012.87
2022-08-05T08:59:19.197Z,1012.94
2022-08-05T09:00:13.000Z,1012.90
2022-08-05T09:01:16.483Z,1012.93
2022-08-05T09:02:12.980Z,1012.99
2022-08-05T09:03:11.935Z,1012.95
2022-08-05T09:04:11.933Z,1013.07
2022-08-05T09:05:17.460Z,1013.07
2022-08-05T09:06:17.141Z,1013.07
2022-08-05T09:07:28.188Z,1013.07
2022-08-05T09:08:12.874Z,1013.10
2022-08-05T09:09:11.877Z,1013.11
2022-08-05T09:10:12.799Z,1013.07
2022-08-05T09:11:13.678Z,1013.09
2022-08-05T09:12:20.441Z,1013.14
2022-08-05T09:13:12.815Z,1013.10
2022-08-05T09:14:57.153Z,1013.10
2022-08-05T09:15:12.810Z,1013.15
2022-08-05T09:16:14.657Z,1013.11
2022-08-05T09:17:40.199Z,1013.13
2022-08-05T09:18:13.404Z,1013.18
2022-08-05T09:19:12.040Z,1013.19
2022-08-05T09:20:11.735Z,1013.25
2022-08-05T09:21:21.193Z,1013.19
2022-08-05T09:22:30.917Z,1013.22
2022-08-05T09:23:18.657Z,1013.22
2022-08-05T09:24:12.674Z,1013.21
2022-08-05T09:25:13.755Z,1013.24
2022-08-05T09:26:20.545Z,1013.25
2022-08-05T09:27:12.673Z,1013.19
2022-08-05T09:28:13.026Z,1013.18
2022-08-05T09:29:11.613Z,1013.21
2022-08-05T09:30:16.537Z,1013.18
2022-08-05T09:31:43.824Z,1013.12
2022-08-05T09:32:40.851Z,1013.16
2022-08-05T09:33:15.299Z,1013.19
2022-08-05T09:34:11.612Z,1013.16
2022-08-05T09:35:11.644Z,1013.21
2022-08-05T09:36:16.287Z,1013.20
2022-08-05T09:37:14.988Z,1013.25
2022-08-05T09:38:12.515Z,1013.27
2022-08-05T09:39:16.608Z,1013.24
2022-08-05T09:40:12.539Z,1013.28
2022-08-05T09:41:11.453Z,1013.23
2022-08-05T09:42:17.347Z,1013.28
2022-08-05T09:43:12.449Z,1013.24
2022-08-05T09:44:11.427Z,1013.26
2022-08-05T09:46:04.719Z,1013.26
2022-08-05T09:46:12.395Z,1013.27
2022-08-05T09:47:12.469Z,1013.36
2022-08-05T09:48:11.384Z,1013.33
2022-08-05T09:49:19.564Z,1013.39
2022-08-05T09:50:12.332Z,1013.42
2022-08-05T09:51:15.136Z,1013.33
2022-08-05T09:52:11.316Z,1013.35
2022-08-05T09:53:25.737Z,1013.38
2022-08-05T09:54:12.281Z,1013.41
2022-08-05T09:55:56.715Z,1013.41
2022-08-05T09:56:13.099Z,1013.47
2022-08-05T09:57:23.399Z,1013.42
2022-08-05T09:58:12.230Z,1013.42
2022-08-05T09:59:11.332Z,1013.41
2022-08-05T10:00:12.211Z,1013.39
2022-08-05T10:01:14.822Z,1013.47
2022-08-05T10:02:11.245Z,1013.46
2022-08-05T10:03:11.177Z,1013.48
2022-08-05T10:04:11.145Z,1013.55
2022-08-05T10:05:11.150Z,1013.60
2022-08-05T10:06:15.485Z,1013.62
2022-08-05T10:07:19.832Z,1013.69
2022-08-05T10:08:37.749Z,1013.66
2022-08-05T10:09:24.984Z,1013.68
2022-08-05T10:10:14.958Z,1013.73
2022-08-05T10:11:11.077Z,1013.77
2022-08-05T10:12:18.949Z,1013.75
2022-08-05T10:13:12.051Z,1013.85
2022-08-05T10:14:11.096Z,1013.77
2022-08-05T10:15:11.027Z,1013.82
2022-08-05T10:16:11.046Z,1013.85
2022-08-05T10:17:36.878Z,1013.87
2022-08-05T10:18:11.968Z,1013.87
2022-08-05T10:19:11.776Z,1013.94
2022-08-05T10:20:11.980Z,1013.92
2022-08-05T10:21:15.753Z,1013.91
2022-08-05T10:22:15.695Z,1013.98
2022-08-05T10:23:34.209Z,1013.91
2022-08-05T10:24:11.893Z,1013.93
2022-08-05T10:25:10.888Z,1013.90
2022-08-05T10:26:13.871Z,1013.96
2022-08-05T10:27:10.867Z,1013.96
2022-08-05T10:28:17.299Z,1013.93
2022-08-05T10:29:11.846Z,1013.97
2022-08-05T10:32:46.946Z,1013.97
2022-08-05T10:32:52.051Z,1013.96
2022-08-05T10:32:53.045Z,1014.02
2022-08-05T10:33:14.734Z,1013.98
2022-08-05T10:34:10.780Z,1014.01
2022-08-05T10:35:10.771Z,1014.01
2022-08-05T10:36:10.735Z,1014.04
2022-08-05T10:37:10.729Z,1014.06
2022-08-05T10:38:11.727Z,1014.07
2022-08-05T10:39:15.261Z,1014.15
2022-08-05T10:40:18.064Z,1014.13
2022-08-05T10:41:12.463Z,1014.10
2022-08-05T10:42:11.367Z,1014.17
2022-08-05T10:43:12.425Z,1014.14
2022-08-05T10:44:10.657Z,1014.23
2022-08-05T10:45:23.275Z,1014.17
2022-08-05T10:46:11.828Z,1014.18
2022-08-05T10:47:26.506Z,1014.18
2022-08-05T10:48:31.005Z,1014.24
2022-08-05T10:49:16.410Z,1014.24
2022-08-05T10:50:31.901Z,1014.25
2022-08-05T10:51:22.101Z,1014.28
2022-08-05T10:52:11.529Z,1014.33
2022-08-05T10:53:10.536Z,1014.33
2022-08-05T10:54:28.518Z,1014.33
2022-08-05T10:55:11.489Z,1014.34
2022-08-05T10:56:21.163Z,1014.37
2022-08-05T10:57:11.468Z,1014.39
2022-08-05T10:58:11.462Z,1014.40
2022-08-05T10:59:12.569Z,1014.39
2022-08-05T11:00:16.385Z,1014.42
2022-08-05T11:01:11.553Z,1014.40
2022-08-05T11:02:14.653Z,1014.44
2022-08-05T11:03:24.501Z,1014.47
2022-08-05T11:04:11.400Z,1014.46
2022-08-05T11:05:10.424Z,1014.47
2022-08-05T11:06:15.301Z,1014.55
2022-08-05T11:07:11.358Z,1014.54
2022-08-05T11:08:33.649Z,1014.59
2022-08-05T11:09:13.203Z,1014.57
2022-08-05T11:10:11.275Z,1014.58
2022-08-05T11:11:16.483Z,1014.60
2022-08-05T11:12:11.268Z,1014.60
2022-08-05T11:13:10.243Z,1014.61
2022-08-05T11:14:10.254Z,1014.67
2022-08-05T11:15:19.197Z,1014.59
2022-08-05T11:16:11.238Z,1014.61
2022-08-05T11:17:56.852Z,1014.68
2022-08-05T11:18:11.733Z,1014.64
2022-08-05T11:20:10.006Z,1014.64
2022-08-05T11:20:18.221Z,1014.67
2022-08-05T11:21:12.086Z,1014.69
2022-08-05T11:22:10.123Z,1014.65
2022-08-05T11:23:10.563Z,1014.69
2022-08-05T11:24:14.661Z,1014.68
2022-08-05T11:26:03.386Z,1014.69
2022-08-05T11:26:11.070Z,1014.67
2022-08-05T11:27:10.055Z,1014.65
2022-08-05T11:28:10.042Z,1014.68
2022-08-05T11:29:13.283Z,1014.67
2022-08-05T11:30:10.455Z,1014.66
2022-08-05T11:31:10.032Z,1014.69
2022-08-05T11:32:10.033Z,1014.69
2022-08-05T11:33:13.797Z,1014.63
2022-08-05T11:34:14.883Z,1014.64
2022-08-05T11:35:09.982Z,1014.66
2022-08-05T11:36:10.956Z,1014.72
2022-08-05T11:38:28.625Z,1014.67
2022-08-05T11:38:30.851Z,1014.71
2022-08-05T11:39:10.974Z,1014.62
2022-08-05T11:40:09.906Z,1014.64
2022-08-05T11:41:34.137Z,1014.62
2022-08-05T11:42:10.860Z,1014.67
2022-08-05T11:43:10.867Z,1014.61
2022-08-05T11:44:09.887Z,1014.55
2022-08-05T11:45:14.420Z,1014.62
2022-08-05T11:46:23.384Z,1014.57
2022-08-05T11:47:15.203Z,1014.63
2022-08-05T11:48:11.599Z,1014.64
2022-08-05T11:49:10.155Z,1014.65
2022-08-05T11:50:09.775Z,1014.67
2022-08-05T11:51:10.812Z,1014.63
2022-08-05T11:52:11.611Z,1014.65
2022-08-05T11:53:09.839Z,1014.72
2022-08-05T11:54:09.763Z,1014.69
2022-08-05T11:55:10.588Z,1014.65
2022-08-05T11:56:11.360Z,1014.69
2022-08-05T11:57:24.876Z,1014.68
2022-08-05T11:58:12.024Z,1014.70
2022-08-05T11:59:13.829Z,1014.58
2022-08-05T12:00:09.643Z,1014.63
2022-08-05T12:01:10.427Z,1014.61
2022-08-05T12:02:23.677Z,1014.58
2022-08-05T12:03:10.618Z,1014.59
2022-08-05T12:04:09.624Z,1014.63
2022-08-05T12:05:17.799Z,1014.64
2022-08-05T12:06:10.822Z,1014.61
2022-08-05T12:07:09.567Z,1014.67